sensor_id;sensor_type;location;lat;lon;timestamp;temperature;humidity
19898;DHT22;10111;50.814;4.572;2023-07-28T00:00:43;19.90;99.90
19898;DHT22;10111;50.814;4.572;2023-07-28T00:03:09;19.90;99.90
19898;DHT22;10111;50.814;4.572;2023-07-28T00:05:36;19.90;99.90
19898;DHT22;10111;50.814;4.572;2023-07-28T00:08:02;19.70;99.90
19898;DHT22;10111;50.814;4.572;2023-07-28T00:10:27;19.90;99.90
19898;DHT22;10111;50.814;4.572;2023-07-28T00:12:53;19.80;99.90
19898;DHT22;10111;50.814;4.572;2023-07-28T00:15:19;19.80;99.90
19898;DHT22;10111;50.814;4.572;2023-07-28T00:17:44;19.80;99.90
19898;DHT22;10111;50.814;4.572;2023-07-28T00:20:11;19.70;99.90
19898;DHT22;10111;50.814;4.572;2023-07-28T00:22:36;19.60;99.90
19898;DHT22;10111;50.814;4.572;2023-07-28T00:25:02;19.60;99.90
19898;DHT22;10111;50.814;4.572;2023-07-28T00:27:28;19.70;99.90
19898;DHT22;10111;50.814;4.572;2023-07-28T00:29:53;19.70;99.90
19898;DHT22;10111;50.814;4.572;2023-07-28T00:32:19;19.70;99.90
19898;DHT22;10111;50.814;4.572;2023-07-28T00:34:45;19.70;99.90
19898;DHT22;10111;50.814;4.572;2023-07-28T00:37:10;19.70;99.90
19898;DHT22;10111;50.814;4.572;2023-07-28T00:39:36;19.70;99.90
19898;DHT22;10111;50.814;4.572;2023-07-28T00:42:02;19.70;99.90
19898;DHT22;10111;50.814;4.572;2023-07-28T00:44:27;19.70;99.90
19898;DHT22;10111;50.814;4.572;2023-07-28T00:46:53;19.60;99.90
19898;DHT22;10111;50.814;4.572;2023-07-28T00:49:19;19.70;99.90
19898;DHT22;10111;50.814;4.572;2023-07-28T00:51:45;19.70;99.90
19898;DHT22;10111;50.814;4.572;2023-07-28T00:54:11;19.70;99.90
19898;DHT22;10111;50.814;4.572;2023-07-28T00:56:37;19.70;99.90
19898;DHT22;10111;50.814;4.572;2023-07-28T00:59:03;19.70;99.90
19898;DHT22;10111;50.814;4.572;2023-07-28T01:01:29;19.70;99.90
19898;DHT22;10111;50.814;4.572;2023-07-28T01:03:55;19.70;99.90
19898;DHT22;10111;50.814;4.572;2023-07-28T01:06:26;19.70;99.90
19898;DHT22;10111;50.814;4.572;2023-07-28T01:09:03;19.70;99.90
19898;DHT22;10111;50.814;4.572;2023-07-28T01:11:30;19.80;99.90
19898;DHT22;10111;50.814;4.572;2023-07-28T01:13:55;19.70;99.90
19898;DHT22;10111;50.814;4.572;2023-07-28T01:16:21;19.70;99.90
19898;DHT22;10111;50.814;4.572;2023-07-28T01:18:47;19.70;99.90
19898;DHT22;10111;50.814;4.572;2023-07-28T01:21:28;19.70;99.90
19898;DHT22;10111;50.814;4.572;2023-07-28T01:24:06;19.70;99.90
19898;DHT22;10111;50.814;4.572;2023-07-28T01:26:36;19.70;99.90
19898;DHT22;10111;50.814;4.572;2023-07-28T01:29:04;19.70;99.90
19898;DHT22;10111;50.814;4.572;2023-07-28T01:31:30;19.60;99.90
19898;DHT22;10111;50.814;4.572;2023-07-28T01:33:56;19.60;99.90
19898;DHT22;10111;50.814;4.572;2023-07-28T01:36:22;19.60;99.90
19898;DHT22;10111;50.814;4.572;2023-07-28T01:38:48;19.60;99.90
19898;DHT22;10111;50.814;4.572;2023-07-28T01:41:13;19.60;99.90
19898;DHT22;10111;50.814;4.572;2023-07-28T01:43:39;19.70;99.90
19898;DHT22;10111;50.814;4.572;2023-07-28T01:46:04;19.70;99.90
19898;DHT22;10111;50.814;4.572;2023-07-28T01:48:30;19.70;99.90
19898;DHT22;10111;50.814;4.572;2023-07-28T01:50:56;19.70;99.90
19898;DHT22;10111;50.814;4.572;2023-07-28T01:53:22;19.60;99.90
19898;DHT22;10111;50.814;4.572;2023-07-28T01:55:47;19.60;99.90
19898;DHT22;10111;50.814;4.572;2023-07-28T01:58:13;19.60;99.90
19898;DHT22;10111;50.814;4.572;2023-07-28T02:00:38;19.60;99.90
19898;DHT22;10111;50.814;4.572;2023-07-28T02:03:04;19.70;99.90
19898;DHT22;10111;50.814;4.572;2023-07-28T02:05:30;19.60;99.90
19898;DHT22;10111;50.814;4.572;2023-07-28T02:07:56;19.60;99.90
19898;DHT22;10111;50.814;4.572;2023-07-28T02:10:23;19.50;99.90
19898;DHT22;10111;50.814;4.572;2023-07-28T02:12:49;19.60;99.90
19898;DHT22;10111;50.814;4.572;2023-07-28T02:15:15;19.60;99.90
19898;DHT22;10111;50.814;4.572;2023-07-28T02:17:41;19.70;99.90
19898;DHT22;10111;50.814;4.572;2023-07-28T02:20:07;19.70;99.90
19898;DHT22;10111;50.814;4.572;2023-07-28T02:22:36;19.70;99.90
19898;DHT22;10111;50.814;4.572;2023-07-28T02:25:02;19.70;99.90
19898;DHT22;10111;50.814;4.572;2023-07-28T02:27:28;19.70;99.90
19898;DHT22;10111;50.814;4.572;2023-07-28T02:29:54;19.70;99.90
19898;DHT22;10111;50.814;4.572;2023-07-28T02:32:19;19.70;99.90
19898;DHT22;10111;50.814;4.572;2023-07-28T02:34:45;19.70;99.90
19898;DHT22;10111;50.814;4.572;2023-07-28T02:37:11;19.70;99.90
19898;DHT22;10111;50.814;4.572;2023-07-28T02:39:37;19.70;99.90
19898;DHT22;10111;50.814;4.572;2023-07-28T02:42:02;19.70;99.90
19898;DHT22;10111;50.814;4.572;2023-07-28T02:44:28;19.80;99.90
19898;DHT22;10111;50.814;4.572;2023-07-28T02:46:54;19.70;99.90
19898;DHT22;10111;50.814;4.572;2023-07-28T02:49:19;19.70;99.90
19898;DHT22;10111;50.814;4.572;2023-07-28T02:51:45;19.90;99.90
19898;DHT22;10111;50.814;4.572;2023-07-28T02:54:10;19.80;99.90
19898;DHT22;10111;50.814;4.572;2023-07-28T02:56:36;19.80;99.90
19898;DHT22;10111;50.814;4.572;2023-07-28T02:59:04;19.80;99.90
19898;DHT22;10111;50.814;4.572;2023-07-28T03:01:30;19.70;99.90
19898;DHT22;10111;50.814;4.572;2023-07-28T03:04:01;19.70;99.90
19898;DHT22;10111;50.814;4.572;2023-07-28T03:06:26;19.70;99.90
19898;DHT22;10111;50.814;4.572;2023-07-28T03:08:52;19.80;99.90
19898;DHT22;10111;50.814;4.572;2023-07-28T03:11:18;19.80;99.90
19898;DHT22;10111;50.814;4.572;2023-07-28T03:13:44;19.80;99.90
19898;DHT22;10111;50.814;4.572;2023-07-28T03:16:09;19.90;99.90
19898;DHT22;10111;50.814;4.572;2023-07-28T03:18:35;19.90;99.90
19898;DHT22;10111;50.814;4.572;2023-07-28T03:21:01;19.80;99.90
19898;DHT22;10111;50.814;4.572;2023-07-28T03:23:26;19.70;99.90
19898;DHT22;10111;50.814;4.572;2023-07-28T03:25:52;19.70;99.90
19898;DHT22;10111;50.814;4.572;2023-07-28T03:28:18;19.80;99.90
19898;DHT22;10111;50.814;4.572;2023-07-28T03:30:43;19.70;99.90
19898;DHT22;10111;50.814;4.572;2023-07-28T03:33:09;19.70;99.90
19898;DHT22;10111;50.814;4.572;2023-07-28T03:35:35;19.70;99.90
19898;DHT22;10111;50.814;4.572;2023-07-28T03:38:00;19.70;99.90
19898;DHT22;10111;50.814;4.572;2023-07-28T03:40:26;19.70;99.90
19898;DHT22;10111;50.814;4.572;2023-07-28T03:42:52;19.80;99.90
19898;DHT22;10111;50.814;4.572;2023-07-28T03:45:18;19.80;99.90
19898;DHT22;10111;50.814;4.572;2023-07-28T03:47:44;19.80;99.90
19898;DHT22;10111;50.814;4.572;2023-07-28T03:50:10;20.00;99.90
19898;DHT22;10111;50.814;4.572;2023-07-28T03:52:35;19.90;99.90
19898;DHT22;10111;50.814;4.572;2023-07-28T03:55:01;19.90;99.90
19898;DHT22;10111;50.814;4.572;2023-07-28T03:57:27;19.80;99.90
19898;DHT22;10111;50.814;4.572;2023-07-28T03:59:53;19.80;99.90
19898;DHT22;10111;50.814;4.572;2023-07-28T04:02:18;19.90;99.90
19898;DHT22;10111;50.814;4.572;2023-07-28T04:04:44;20.00;99.90
19898;DHT22;10111;50.814;4.572;2023-07-28T04:07:10;20.00;99.90
19898;DHT22;10111;50.814;4.572;2023-07-28T04:09:35;19.90;99.90
19898;DHT22;10111;50.814;4.572;2023-07-28T04:12:01;20.00;99.90
19898;DHT22;10111;50.814;4.572;2023-07-28T04:14:27;19.90;99.90
19898;DHT22;10111;50.814;4.572;2023-07-28T04:16:52;19.90;99.90
19898;DHT22;10111;50.814;4.572;2023-07-28T04:19:18;19.90;99.90
19898;DHT22;10111;50.814;4.572;2023-07-28T04:21:43;20.00;99.90
19898;DHT22;10111;50.814;4.572;2023-07-28T04:24:10;19.90;99.90
19898;DHT22;10111;50.814;4.572;2023-07-28T04:26:36;19.90;99.90
19898;DHT22;10111;50.814;4.572;2023-07-28T04:29:02;19.90;99.90
19898;DHT22;10111;50.814;4.572;2023-07-28T04:31:28;19.90;99.90
19898;DHT22;10111;50.814;4.572;2023-07-28T04:33:53;20.00;99.90
19898;DHT22;10111;50.814;4.572;2023-07-28T04:36:19;20.00;99.90
19898;DHT22;10111;50.814;4.572;2023-07-28T04:38:45;20.00;99.90
19898;DHT22;10111;50.814;4.572;2023-07-28T04:41:10;20.00;99.90
19898;DHT22;10111;50.814;4.572;2023-07-28T04:43:36;20.20;99.90
19898;DHT22;10111;50.814;4.572;2023-07-28T04:46:02;20.10;99.90
19898;DHT22;10111;50.814;4.572;2023-07-28T04:48:27;20.10;99.90
19898;DHT22;10111;50.814;4.572;2023-07-28T04:50:54;20.10;99.90
19898;DHT22;10111;50.814;4.572;2023-07-28T04:53:19;20.10;99.90
19898;DHT22;10111;50.814;4.572;2023-07-28T04:55:45;20.00;99.90
19898;DHT22;10111;50.814;4.572;2023-07-28T04:58:11;20.00;99.90
19898;DHT22;10111;50.814;4.572;2023-07-28T05:00:37;20.00;99.90
19898;DHT22;10111;50.814;4.572;2023-07-28T05:03:02;20.10;99.90
19898;DHT22;10111;50.814;4.572;2023-07-28T05:05:31;20.10;99.90
19898;DHT22;10111;50.814;4.572;2023-07-28T05:07:56;20.10;99.90
19898;DHT22;10111;50.814;4.572;2023-07-28T05:10:22;20.20;99.90
19898;DHT22;10111;50.814;4.572;2023-07-28T05:12:48;20.30;99.90
19898;DHT22;10111;50.814;4.572;2023-07-28T05:15:15;20.30;99.90
19898;DHT22;10111;50.814;4.572;2023-07-28T05:17:41;20.30;99.90
19898;DHT22;10111;50.814;4.572;2023-07-28T05:20:07;20.30;99.90
19898;DHT22;10111;50.814;4.572;2023-07-28T05:22:32;20.40;99.90
19898;DHT22;10111;50.814;4.572;2023-07-28T05:24:58;20.40;99.90
19898;DHT22;10111;50.814;4.572;2023-07-28T05:27:24;20.30;99.90
19898;DHT22;10111;50.814;4.572;2023-07-28T05:29:50;20.30;99.90
19898;DHT22;10111;50.814;4.572;2023-07-28T05:32:15;20.40;99.90
19898;DHT22;10111;50.814;4.572;2023-07-28T05:34:44;20.40;99.90
19898;DHT22;10111;50.814;4.572;2023-07-28T05:37:10;20.60;99.90
19898;DHT22;10111;50.814;4.572;2023-07-28T05:39:36;20.60;99.90
19898;DHT22;10111;50.814;4.572;2023-07-28T05:42:02;20.50;99.90
19898;DHT22;10111;50.814;4.572;2023-07-28T05:44:28;20.50;99.90
19898;DHT22;10111;50.814;4.572;2023-07-28T05:46:54;20.50;99.90
19898;DHT22;10111;50.814;4.572;2023-07-28T05:49:19;20.70;99.90
19898;DHT22;10111;50.814;4.572;2023-07-28T05:51:45;20.80;99.90
19898;DHT22;10111;50.814;4.572;2023-07-28T05:54:12;20.70;99.90
19898;DHT22;10111;50.814;4.572;2023-07-28T05:56:40;20.60;99.90
19898;DHT22;10111;50.814;4.572;2023-07-28T05:59:06;20.70;99.90
19898;DHT22;10111;50.814;4.572;2023-07-28T06:01:32;20.80;99.90
19898;DHT22;10111;50.814;4.572;2023-07-28T06:03:58;21.00;99.90
19898;DHT22;10111;50.814;4.572;2023-07-28T06:06:25;21.10;99.90
19898;DHT22;10111;50.814;4.572;2023-07-28T06:08:54;21.00;99.90
19898;DHT22;10111;50.814;4.572;2023-07-28T06:11:20;21.00;99.90
19898;DHT22;10111;50.814;4.572;2023-07-28T06:13:47;21.00;99.90
19898;DHT22;10111;50.814;4.572;2023-07-28T06:16:13;21.00;99.90
19898;DHT22;10111;50.814;4.572;2023-07-28T06:18:39;21.10;99.90
19898;DHT22;10111;50.814;4.572;2023-07-28T06:21:04;21.00;99.90
19898;DHT22;10111;50.814;4.572;2023-07-28T06:23:30;21.10;99.90
19898;DHT22;10111;50.814;4.572;2023-07-28T06:25:56;21.10;99.90
19898;DHT22;10111;50.814;4.572;2023-07-28T06:28:21;20.90;99.90
19898;DHT22;10111;50.814;4.572;2023-07-28T06:30:47;20.90;99.90
19898;DHT22;10111;50.814;4.572;2023-07-28T06:33:13;20.80;99.90
19898;DHT22;10111;50.814;4.572;2023-07-28T06:35:38;20.90;99.90
19898;DHT22;10111;50.814;4.572;2023-07-28T06:38:04;21.00;99.90
19898;DHT22;10111;50.814;4.572;2023-07-28T06:40:30;21.20;99.90
19898;DHT22;10111;50.814;4.572;2023-07-28T06:42:56;21.10;99.90
19898;DHT22;10111;50.814;4.572;2023-07-28T06:45:21;21.00;99.90
19898;DHT22;10111;50.814;4.572;2023-07-28T06:47:47;21.00;99.90
19898;DHT22;10111;50.814;4.572;2023-07-28T06:50:13;21.00;99.90
19898;DHT22;10111;50.814;4.572;2023-07-28T06:52:39;21.00;99.90
19898;DHT22;10111;50.814;4.572;2023-07-28T06:55:05;21.00;99.90
19898;DHT22;10111;50.814;4.572;2023-07-28T06:57:30;21.20;99.90
19898;DHT22;10111;50.814;4.572;2023-07-28T06:59:57;21.20;99.90
19898;DHT22;10111;50.814;4.572;2023-07-28T07:02:23;21.40;99.90
19898;DHT22;10111;50.814;4.572;2023-07-28T07:04:48;21.60;99.90
19898;DHT22;10111;50.814;4.572;2023-07-28T07:07:14;21.70;99.90
19898;DHT22;10111;50.814;4.572;2023-07-28T07:09:40;22.10;99.90
19898;DHT22;10111;50.814;4.572;2023-07-28T07:12:08;22.20;99.90
19898;DHT22;10111;50.814;4.572;2023-07-28T07:14:33;22.30;99.90
19898;DHT22;10111;50.814;4.572;2023-07-28T07:16:59;22.30;99.90
19898;DHT22;10111;50.814;4.572;2023-07-28T07:19:25;22.20;99.90
19898;DHT22;10111;50.814;4.572;2023-07-28T07:21:51;22.20;99.90
19898;DHT22;10111;50.814;4.572;2023-07-28T07:24:17;22.20;99.90
19898;DHT22;10111;50.814;4.572;2023-07-28T07:26:42;22.30;99.90
19898;DHT22;10111;50.814;4.572;2023-07-28T07:29:08;22.40;99.90
19898;DHT22;10111;50.814;4.572;2023-07-28T07:31:35;22.60;99.90
19898;DHT22;10111;50.814;4.572;2023-07-28T07:34:00;22.50;99.90
19898;DHT22;10111;50.814;4.572;2023-07-28T07:36:26;22.40;99.90
19898;DHT22;10111;50.814;4.572;2023-07-28T07:38:52;22.30;99.90
19898;DHT22;10111;50.814;4.572;2023-07-28T07:41:18;22.10;99.90
19898;DHT22;10111;50.814;4.572;2023-07-28T07:43:47;22.10;99.90
19898;DHT22;10111;50.814;4.572;2023-07-28T07:46:14;22.10;99.90
19898;DHT22;10111;50.814;4.572;2023-07-28T07:48:40;22.10;99.90
19898;DHT22;10111;50.814;4.572;2023-07-28T07:51:07;22.10;99.90
19898;DHT22;10111;50.814;4.572;2023-07-28T07:53:32;22.10;99.90
19898;DHT22;10111;50.814;4.572;2023-07-28T07:55:58;22.30;99.90
19898;DHT22;10111;50.814;4.572;2023-07-28T07:58:24;22.50;99.90
19898;DHT22;10111;50.814;4.572;2023-07-28T08:00:49;22.70;99.90
19898;DHT22;10111;50.814;4.572;2023-07-28T08:03:15;22.90;99.90
19898;DHT22;10111;50.814;4.572;2023-07-28T08:05:40;23.20;99.90
19898;DHT22;10111;50.814;4.572;2023-07-28T08:08:07;23.30;99.90
19898;DHT22;10111;50.814;4.572;2023-07-28T08:10:33;23.50;99.90
19898;DHT22;10111;50.814;4.572;2023-07-28T08:12:59;23.50;99.90
19898;DHT22;10111;50.814;4.572;2023-07-28T08:15:25;23.50;99.90
19898;DHT22;10111;50.814;4.572;2023-07-28T08:17:51;23.40;99.90
19898;DHT22;10111;50.814;4.572;2023-07-28T08:20:17;23.20;99.90
19898;DHT22;10111;50.814;4.572;2023-07-28T08:22:43;23.00;99.90
19898;DHT22;10111;50.814;4.572;2023-07-28T08:25:09;22.90;99.90
19898;DHT22;10111;50.814;4.572;2023-07-28T08:27:35;22.80;99.90
19898;DHT22;10111;50.814;4.572;2023-07-28T08:30:01;22.70;99.90
19898;DHT22;10111;50.814;4.572;2023-07-28T08:32:26;22.80;99.90
19898;DHT22;10111;50.814;4.572;2023-07-28T08:34:53;22.70;99.90
19898;DHT22;10111;50.814;4.572;2023-07-28T08:37:19;22.70;99.90
19898;DHT22;10111;50.814;4.572;2023-07-28T08:39:45;22.70;99.90
19898;DHT22;10111;50.814;4.572;2023-07-28T08:42:10;22.80;99.90
19898;DHT22;10111;50.814;4.572;2023-07-28T08:44:36;23.00;99.90
19898;DHT22;10111;50.814;4.572;2023-07-28T08:47:03;23.20;99.90
19898;DHT22;10111;50.814;4.572;2023-07-28T08:49:33;23.50;99.90
19898;DHT22;10111;50.814;4.572;2023-07-28T08:52:01;23.90;99.90
19898;DHT22;10111;50.814;4.572;2023-07-28T08:54:27;24.40;99.90
19898;DHT22;10111;50.814;4.572;2023-07-28T08:56:53;24.80;99.90
19898;DHT22;10111;50.814;4.572;2023-07-28T08:59:22;24.80;99.90
19898;DHT22;10111;50.814;4.572;2023-07-28T09:01:51;24.70;99.90
19898;DHT22;10111;50.814;4.572;2023-07-28T09:04:17;24.50;99.90
19898;DHT22;10111;50.814;4.572;2023-07-28T09:06:47;24.30;99.90
19898;DHT22;10111;50.814;4.572;2023-07-28T09:09:14;24.50;99.90
19898;DHT22;10111;50.814;4.572;2023-07-28T09:11:53;24.50;99.90
19898;DHT22;10111;50.814;4.572;2023-07-28T09:14:21;24.40;99.90
19898;DHT22;10111;50.814;4.572;2023-07-28T09:16:49;24.40;99.90
19898;DHT22;10111;50.814;4.572;2023-07-28T09:19:15;24.50;99.90
19898;DHT22;10111;50.814;4.572;2023-07-28T09:21:44;24.50;99.90
19898;DHT22;10111;50.814;4.572;2023-07-28T09:24:12;24.40;99.90
19898;DHT22;10111;50.814;4.572;2023-07-28T09:26:44;24.50;99.90
19898;DHT22;10111;50.814;4.572;2023-07-28T09:29:18;24.50;99.90
19898;DHT22;10111;50.814;4.572;2023-07-28T09:31:45;24.50;99.90
19898;DHT22;10111;50.814;4.572;2023-07-28T09:34:12;24.50;99.90
19898;DHT22;10111;50.814;4.572;2023-07-28T09:36:39;24.60;99.90
19898;DHT22;10111;50.814;4.572;2023-07-28T09:39:07;24.50;99.90
19898;DHT22;10111;50.814;4.572;2023-07-28T09:41:37;24.40;99.90
19898;DHT22;10111;50.814;4.572;2023-07-28T09:44:04;24.50;99.90
19898;DHT22;10111;50.814;4.572;2023-07-28T09:46:33;24.50;99.90
19898;DHT22;10111;50.814;4.572;2023-07-28T09:49:04;24.50;99.90
19898;DHT22;10111;50.814;4.572;2023-07-28T09:51:31;24.50;99.90
19898;DHT22;10111;50.814;4.572;2023-07-28T09:54:11;24.80;99.90
19898;DHT22;10111;50.814;4.572;2023-07-28T09:56:38;24.80;99.90
19898;DHT22;10111;50.814;4.572;2023-07-28T09:59:10;25.10;99.90
19898;DHT22;10111;50.814;4.572;2023-07-28T10:01:37;25.10;99.90
19898;DHT22;10111;50.814;4.572;2023-07-28T10:04:04;25.40;99.90
19898;DHT22;10111;50.814;4.572;2023-07-28T10:06:30;25.50;99.90
19898;DHT22;10111;50.814;4.572;2023-07-28T10:08:59;25.80;99.90
19898;DHT22;10111;50.814;4.572;2023-07-28T10:11:25;25.80;99.90
19898;DHT22;10111;50.814;4.572;2023-07-28T10:13:54;25.80;99.90
19898;DHT22;10111;50.814;4.572;2023-07-28T10:16:20;25.80;99.90
19898;DHT22;10111;50.814;4.572;2023-07-28T10:18:55;25.90;99.90
19898;DHT22;10111;50.814;4.572;2023-07-28T10:21:20;25.80;99.90
19898;DHT22;10111;50.814;4.572;2023-07-28T10:23:54;25.70;99.90
19898;DHT22;10111;50.814;4.572;2023-07-28T10:26:41;25.50;99.90
19898;DHT22;10111;50.814;4.572;2023-07-28T10:29:14;25.40;99.90
19898;DHT22;10111;50.814;4.572;2023-07-28T10:32:09;25.50;99.90
19898;DHT22;10111;50.814;4.572;2023-07-28T10:34:59;25.60;99.90
19898;DHT22;10111;50.814;4.572;2023-07-28T10:37:26;25.30;99.90
19898;DHT22;10111;50.814;4.572;2023-07-28T10:40:24;25.30;99.90
19898;DHT22;10111;50.814;4.572;2023-07-28T10:42:53;25.50;99.90
19898;DHT22;10111;50.814;4.572;2023-07-28T10:45:20;25.20;99.90
19898;DHT22;10111;50.814;4.572;2023-07-28T10:47:46;24.90;99.90
19898;DHT22;10111;50.814;4.572;2023-07-28T10:50:13;24.80;99.90
19898;DHT22;10111;50.814;4.572;2023-07-28T10:52:43;24.80;99.90
19898;DHT22;10111;50.814;4.572;2023-07-28T10:55:19;25.00;99.90
19898;DHT22;10111;50.814;4.572;2023-07-28T10:57:47;25.10;99.90
19898;DHT22;10111;50.814;4.572;2023-07-28T11:00:18;25.20;99.90
19898;DHT22;10111;50.814;4.572;2023-07-28T11:02:49;25.20;99.90
19898;DHT22;10111;50.814;4.572;2023-07-28T11:05:23;25.10;99.90
19898;DHT22;10111;50.814;4.572;2023-07-28T11:07:49;25.30;99.90
19898;DHT22;10111;50.814;4.572;2023-07-28T11:10:15;25.40;99.90
19898;DHT22;10111;50.814;4.572;2023-07-28T11:12:43;25.50;99.90
19898;DHT22;10111;50.814;4.572;2023-07-28T11:15:10;25.50;99.90
19898;DHT22;10111;50.814;4.572;2023-07-28T11:17:41;25.40;99.90
19898;DHT22;10111;50.814;4.572;2023-07-28T11:20:24;25.40;99.90
19898;DHT22;10111;50.814;4.572;2023-07-28T11:25:19;25.30;99.90
19898;DHT22;10111;50.814;4.572;2023-07-28T11:27:47;25.10;99.90
19898;DHT22;10111;50.814;4.572;2023-07-28T11:30:15;24.90;99.90
19898;DHT22;10111;50.814;4.572;2023-07-28T11:32:43;25.10;99.90
19898;DHT22;10111;50.814;4.572;2023-07-28T11:35:11;25.30;99.90
19898;DHT22;10111;50.814;4.572;2023-07-28T11:37:42;25.50;99.90
19898;DHT22;10111;50.814;4.572;2023-07-28T11:40:08;25.70;99.90
19898;DHT22;10111;50.814;4.572;2023-07-28T11:42:41;25.80;99.90
19898;DHT22;10111;50.814;4.572;2023-07-28T11:45:10;26.00;99.90
19898;DHT22;10111;50.814;4.572;2023-07-28T11:47:37;26.20;99.90
19898;DHT22;10111;50.814;4.572;2023-07-28T11:50:03;26.20;99.90
19898;DHT22;10111;50.814;4.572;2023-07-28T11:52:34;26.20;99.90
19898;DHT22;10111;50.814;4.572;2023-07-28T11:55:05;25.90;99.90
19898;DHT22;10111;50.814;4.572;2023-07-28T11:57:31;25.70;99.90
19898;DHT22;10111;50.814;4.572;2023-07-28T12:00:01;25.40;99.90
19898;DHT22;10111;50.814;4.572;2023-07-28T12:02:31;25.50;99.90
19898;DHT22;10111;50.814;4.572;2023-07-28T12:04:58;25.40;99.90
19898;DHT22;10111;50.814;4.572;2023-07-28T12:07:32;25.50;99.90
19898;DHT22;10111;50.814;4.572;2023-07-28T12:10:03;25.60;99.90
19898;DHT22;10111;50.814;4.572;2023-07-28T12:12:43;25.80;99.90
19898;DHT22;10111;50.814;4.572;2023-07-28T12:18:11;26.20;99.90
19898;DHT22;10111;50.814;4.572;2023-07-28T12:20:43;26.20;99.90
19898;DHT22;10111;50.814;4.572;2023-07-28T12:23:20;26.00;99.90
19898;DHT22;10111;50.814;4.572;2023-07-28T12:25:46;25.90;99.90
19898;DHT22;10111;50.814;4.572;2023-07-28T12:28:12;25.80;99.90
19898;DHT22;10111;50.814;4.572;2023-07-28T12:30:38;25.80;99.90
19898;DHT22;10111;50.814;4.572;2023-07-28T12:33:04;25.80;99.90
19898;DHT22;10111;50.814;4.572;2023-07-28T12:35:31;25.90;99.90
19898;DHT22;10111;50.814;4.572;2023-07-28T12:38:04;26.00;99.90
19898;DHT22;10111;50.814;4.572;2023-07-28T12:40:31;26.20;99.90
19898;DHT22;10111;50.814;4.572;2023-07-28T12:42:57;26.20;99.90
19898;DHT22;10111;50.814;4.572;2023-07-28T12:45:23;26.00;99.90
19898;DHT22;10111;50.814;4.572;2023-07-28T12:47:52;26.10;99.90
19898;DHT22;10111;50.814;4.572;2023-07-28T12:50:18;25.80;99.90
19898;DHT22;10111;50.814;4.572;2023-07-28T12:52:44;25.80;99.90
19898;DHT22;10111;50.814;4.572;2023-07-28T12:55:10;25.90;99.90
19898;DHT22;10111;50.814;4.572;2023-07-28T12:57:35;26.00;99.90
19898;DHT22;10111;50.814;4.572;2023-07-28T13:00:01;26.00;99.90
19898;DHT22;10111;50.814;4.572;2023-07-28T13:02:32;25.90;99.90
19898;DHT22;10111;50.814;4.572;2023-07-28T13:04:57;25.80;99.90
19898;DHT22;10111;50.814;4.572;2023-07-28T13:07:23;25.70;99.90
19898;DHT22;10111;50.814;4.572;2023-07-28T13:09:49;25.70;99.90
19898;DHT22;10111;50.814;4.572;2023-07-28T13:12:14;25.80;99.90
19898;DHT22;10111;50.814;4.572;2023-07-28T13:14:40;25.90;99.90
19898;DHT22;10111;50.814;4.572;2023-07-28T13:17:06;25.90;99.90
19898;DHT22;10111;50.814;4.572;2023-07-28T13:19:31;26.00;99.90
19898;DHT22;10111;50.814;4.572;2023-07-28T13:21:57;26.10;99.90
19898;DHT22;10111;50.814;4.572;2023-07-28T13:24:23;26.20;99.90
19898;DHT22;10111;50.814;4.572;2023-07-28T13:26:48;26.10;99.90
19898;DHT22;10111;50.814;4.572;2023-07-28T13:29:14;26.10;99.90
19898;DHT22;10111;50.814;4.572;2023-07-28T13:31:40;26.00;99.90
19898;DHT22;10111;50.814;4.572;2023-07-28T13:34:05;26.20;99.90
19898;DHT22;10111;50.814;4.572;2023-07-28T13:36:31;26.30;99.90
19898;DHT22;10111;50.814;4.572;2023-07-28T13:38:57;26.40;99.90
19898;DHT22;10111;50.814;4.572;2023-07-28T13:41:22;26.60;99.90
19898;DHT22;10111;50.814;4.572;2023-07-28T13:43:48;26.40;99.90
19898;DHT22;10111;50.814;4.572;2023-07-28T13:46:13;26.40;99.90
19898;DHT22;10111;50.814;4.572;2023-07-28T13:48:39;26.50;99.90
19898;DHT22;10111;50.814;4.572;2023-07-28T13:51:05;26.50;99.90
19898;DHT22;10111;50.814;4.572;2023-07-28T13:53:30;26.40;99.90
19898;DHT22;10111;50.814;4.572;2023-07-28T13:55:56;26.30;99.90
19898;DHT22;10111;50.814;4.572;2023-07-28T13:58:22;26.40;99.90
19898;DHT22;10111;50.814;4.572;2023-07-28T14:00:48;26.50;99.90
19898;DHT22;10111;50.814;4.572;2023-07-28T14:03:14;26.70;99.90
19898;DHT22;10111;50.814;4.572;2023-07-28T14:05:41;26.80;99.90
19898;DHT22;10111;50.814;4.572;2023-07-28T14:08:06;26.80;99.90
19898;DHT22;10111;50.814;4.572;2023-07-28T14:10:32;26.90;99.90
19898;DHT22;10111;50.814;4.572;2023-07-28T14:12:58;26.90;99.90
19898;DHT22;10111;50.814;4.572;2023-07-28T14:15:24;26.70;99.90
19898;DHT22;10111;50.814;4.572;2023-07-28T14:17:50;26.40;99.90
19898;DHT22;10111;50.814;4.572;2023-07-28T14:20:15;26.30;99.90
19898;DHT22;10111;50.814;4.572;2023-07-28T14:22:41;26.30;99.90
19898;DHT22;10111;50.814;4.572;2023-07-28T14:25:07;26.10;99.90
19898;DHT22;10111;50.814;4.572;2023-07-28T14:27:33;26.10;99.90
19898;DHT22;10111;50.814;4.572;2023-07-28T14:29:58;26.00;99.90
19898;DHT22;10111;50.814;4.572;2023-07-28T14:32:24;26.10;99.90
19898;DHT22;10111;50.814;4.572;2023-07-28T14:34:49;26.20;99.90
19898;DHT22;10111;50.814;4.572;2023-07-28T14:37:15;26.30;99.90
19898;DHT22;10111;50.814;4.572;2023-07-28T14:39:41;26.30;99.90
19898;DHT22;10111;50.814;4.572;2023-07-28T14:42:06;26.40;99.90
19898;DHT22;10111;50.814;4.572;2023-07-28T14:44:32;26.60;99.90
19898;DHT22;10111;50.814;4.572;2023-07-28T14:46:58;26.70;99.90
19898;DHT22;10111;50.814;4.572;2023-07-28T14:49:23;26.90;99.90
19898;DHT22;10111;50.814;4.572;2023-07-28T14:51:53;26.90;99.90
19898;DHT22;10111;50.814;4.572;2023-07-28T14:54:19;26.70;99.90
19898;DHT22;10111;50.814;4.572;2023-07-28T14:56:45;26.50;99.90
19898;DHT22;10111;50.814;4.572;2023-07-28T14:59:10;26.30;99.90
19898;DHT22;10111;50.814;4.572;2023-07-28T15:01:36;26.00;99.90
19898;DHT22;10111;50.814;4.572;2023-07-28T15:04:02;25.90;99.90
19898;DHT22;10111;50.814;4.572;2023-07-28T15:06:32;26.00;99.90
19898;DHT22;10111;50.814;4.572;2023-07-28T15:08:58;25.90;99.90
19898;DHT22;10111;50.814;4.572;2023-07-28T15:11:24;25.70;99.90
19898;DHT22;10111;50.814;4.572;2023-07-28T15:13:50;25.70;99.90
19898;DHT22;10111;50.814;4.572;2023-07-28T15:16:16;25.50;99.90
19898;DHT22;10111;50.814;4.572;2023-07-28T15:18:42;25.40;99.90
19898;DHT22;10111;50.814;4.572;2023-07-28T15:21:07;25.30;99.90
19898;DHT22;10111;50.814;4.572;2023-07-28T15:23:33;25.30;99.90
19898;DHT22;10111;50.814;4.572;2023-07-28T15:25:58;25.40;99.90
19898;DHT22;10111;50.814;4.572;2023-07-28T15:28:24;25.60;99.90
19898;DHT22;10111;50.814;4.572;2023-07-28T15:30:50;25.70;99.90
19898;DHT22;10111;50.814;4.572;2023-07-28T15:33:18;25.80;99.90